Mansfield Center, CT (06250)

11:38 AM EDT on July 28, 2016 (GMT -0400)
Wormwood HIll | | Change Station

Elev 558 ft 41.80 °N, 72.19 °W | Updated 22 seconds ago

Clear
Clear
87.3 °F
Feels Like 90 °F
N
0.0
Wind Variable Wind from South
Gusts 0.0 mph

Today
High -- | Low -- °F
--% Chance of Precip.
Yesterday
High -- | Low -- °F
Precip. -- in
Pressure 29.92 in
Visibility 10.0 miles
Clouds Clear
Heat Index 90 °F
Dew Point 66 °F
Humidity 49%
Rainfall 0.00 in
Snow Depth Not available.
5:39 AM 8:10 PM
Waning Crescent, 31% visible
METAR KIJD 281452Z AUTO VRB03KT 10SM CLR 31/18 A2992 RMK AO2 SLP130 6//// T03110178
Pressure 29.92 in
Visibility 10.0 miles
Clouds Clear
Heat Index 90 °F
Dew Point 66 °F
Humidity 49%
Rainfall 0.00 in
Snow Depth Not available.
5:39 AM 8:10 PM
Waning Crescent, 31% visible
METAR KIJD 281452Z AUTO VRB03KT 10SM CLR 31/18 A2992 RMK AO2 SLP130 6//// T03110178

10-Day Weather Forecast

Almanac

Astronomy

Jul. 28, 2016 Rise Set
Actual Time
Civil Twilight
Nautical Twilight
Astronomical Twilight
Moon
Length of Visible Light
Length of Day
Tomorrow will be .
, % of the Moon is Illuminated

Today's Extremes

State Highs State Lows

Community

WunderPhotos

Upload Photos

1,928,129 photos uploaded!

WunderBlog® & News

Nearby

Air Quality

  Air Quality AQ Index Pollutant
Not available.

Snow Depth

Station Depth Elevation

Earthquake Activity

City Distance Mag. Time & Date
Minimum magnitude displayed is 2.5.

Coastal Water Temperatures

Place Temperature

Stations

Nearby Weather Stations

Station Location Temp. Windchill Dew Point Humidity Wind Precip. Elev Updated Type
                   

Watches & Warnings

There are currently no watches in effect.